Ridge Manor Estates, Florida
Current Conditions -  °F | °C
As of 5:35 AM on Sunday 26 Oct 2014 (Local Time) from KZPH Reporting Station
Haze Haze  
Wind Chill: 46°   Ceiling: 700
Heat Index: 46°   Visibility: 1.5mi
Dew Point: 46°   Wind: 0mph
Humidity: 100%   Direction: NA
Pressure: 29.98"   Gusts: NA
Location:  28.5059°N, 82.0447°W
Report Text: KZPH 260935Z AUTO 00000KT 1 1/2SM BR VV007 08/08 A2998 RMK AO2 VIS 1/4V5
Loading
Personal Weather Stations






























Interactive Weather Map
Tropical Storm Tracking
New forecast layout! Learn more

10-Day Weather Forecast

Advertisements
Track Severe Weather on mobile